createdAt,value
2018-05-14T00:04:15.830Z,2.00
2018-05-14T00:09:18.462Z,1.80
2018-05-14T00:14:21.068Z,2.10
2018-05-14T00:19:26.505Z,1.90
2018-05-14T00:24:29.153Z,2.00
2018-05-14T00:29:32.653Z,1.80
2018-05-14T00:34:35.325Z,1.90
2018-05-14T00:39:37.881Z,1.80
2018-05-14T00:44:41.935Z,1.70
2018-05-14T00:49:45.275Z,2.00
2018-05-14T00:55:00.187Z,2.13
2018-05-14T01:00:02.834Z,1.93
2018-05-14T01:05:05.406Z,2.00
2018-05-14T01:10:07.983Z,2.30
2018-05-14T01:15:10.556Z,2.47
2018-05-14T01:20:13.165Z,2.53
2018-05-14T01:25:15.794Z,2.60
2018-05-14T01:30:18.387Z,2.97
2018-05-14T01:35:21.717Z,3.17
2018-05-14T01:40:25.045Z,3.10
2018-05-14T01:45:27.602Z,2.40
2018-05-14T01:50:30.198Z,2.43
2018-05-14T01:55:32.797Z,2.90
2018-05-14T02:00:36.135Z,2.77
2018-05-14T02:05:40.578Z,2.73
2018-05-14T02:10:43.158Z,2.60
2018-05-14T02:15:46.484Z,3.10
2018-05-14T02:20:49.059Z,2.80
2018-05-14T02:25:52.410Z,2.93
2018-05-14T02:30:56.981Z,3.37
2018-05-14T02:35:59.628Z,2.40
2018-05-14T02:41:05.930Z,3.17
2018-05-14T02:46:11.084Z,2.93
2018-05-14T02:51:18.427Z,2.83
2018-05-14T02:56:24.038Z,2.70
2018-05-14T03:01:26.628Z,3.20
2018-05-14T03:06:29.192Z,2.87
2018-05-14T03:11:31.792Z,3.23
2018-05-14T03:16:34.427Z,4.47
2018-05-14T03:21:37.022Z,5.27
2018-05-14T03:26:39.667Z,6.27
2018-05-14T03:31:42.222Z,6.40
2018-05-14T03:36:44.790Z,6.67
2018-05-14T03:41:50.205Z,6.10
2018-05-14T03:46:54.056Z,5.43
2018-05-14T03:51:59.593Z,5.20
2018-05-14T03:57:02.173Z,5.40
2018-05-14T04:02:25.515Z,6.30
2018-05-14T04:07:28.058Z,7.83
2018-05-14T04:12:34.381Z,7.90
2018-05-14T04:17:36.952Z,8.23
2018-05-14T04:22:42.749Z,7.60
2018-05-14T04:27:45.409Z,6.27
2018-05-14T04:32:51.772Z,7.07
2018-05-14T04:37:54.868Z,7.23
2018-05-14T04:42:57.581Z,6.23
2018-05-14T04:48:01.375Z,7.50
2018-05-14T04:53:04.891Z,7.13
2018-05-14T04:58:08.234Z,6.70
2018-05-14T05:03:10.874Z,6.40
2018-05-14T05:08:13.468Z,6.00
2018-05-14T05:13:18.145Z,6.00
2018-05-14T05:18:20.752Z,6.10
2018-05-14T05:23:23.355Z,6.53
2018-05-14T05:28:26.035Z,6.97
2018-05-14T05:33:28.642Z,8.03
2018-05-14T05:38:34.595Z,8.57
2018-05-14T05:49:32.090Z,7.93
2018-05-14T05:54:37.497Z,8.60
2018-05-14T06:05:23.200Z,8.23
2018-05-14T06:10:54.458Z,8.10
2018-05-14T06:16:20.720Z,7.80
2018-05-14T06:40:38.877Z,7.33
